PAEI METAR and TAF weather

Enter ICAO airport designator
Station Type Date Time Source
PAEI METAR 2021/09/28 16:28 UTC NOAA

PAEI 281628Z COR 00000KT 10SM VCFG FEW001 FEW170 M08/M12 A2956 RMK VIS SE-E 2 SLPNO ALSTG ESTMD $ COR 1635


Station Type Date Time Source
PAEI Decoded METAR 2021/09/28 16:28 UTC NOAA

Fairbanks, Eielson Air Force Base, AK, United States (PAEI) 64-39N 147-06W 167M
Sep 28, 2021 - 12:28 PM EDT / 2021.09.28 1628 UTC
Wind: Calm:0
Visibility: 10 mile(s):0
Sky conditions: mostly clear
Weather: fog in the vicinity
Temperature: 17 F (-8 C)
Dew Point: 10 F (-12 C)
Relative Humidity: 72%
Pressure (altimeter): 29.56 in. Hg (1001 hPa)
ob: PAEI 281628Z COR 00000KT 10SM VCFG FEW001 FEW170 M08/M12 A2956 RMK VIS SE-E 2 SLPNO ALSTG ESTMD COR 1635
cycle: 16

Station Type Date Time Source
PAEI TAF 2021/09/28 16:48 UTC NOAA

TAF
AMD PAEI 281633Z 2816/2920 VRB03KT 9999 VCFG FEW002 SCT170 QNH2955INS
TEMPO 2816/2819 4800 BR
BECMG 2818/2819 VRB06KT 9999 NSW SCT170 QNH2956INS
BECMG 2918/2919 VRB04KT 9999 SCT025 BKN035 620354 QNH2965INS TX03/2900Z TNM10/2914Z

Example: see airport list